sensor_id;sensor_type;location;lat;lon;timestamp;temperature;humidity
7970;DHT22;4030;52.362;9.206;2022-08-19T00:01:30;26.50;51.70
7970;DHT22;4030;52.362;9.206;2022-08-19T00:03:59;26.50;51.80
7970;DHT22;4030;52.362;9.206;2022-08-19T00:06:29;26.40;51.80
7970;DHT22;4030;52.362;9.206;2022-08-19T00:08:56;26.50;51.90
7970;DHT22;4030;52.362;9.206;2022-08-19T00:11:23;26.40;51.90
7970;DHT22;4030;52.362;9.206;2022-08-19T00:13:51;26.40;52.00
7970;DHT22;4030;52.362;9.206;2022-08-19T00:16:17;26.40;52.10
7970;DHT22;4030;52.362;9.206;2022-08-19T00:18:44;26.30;52.00
7970;DHT22;4030;52.362;9.206;2022-08-19T00:21:10;26.30;52.10
7970;DHT22;4030;52.362;9.206;2022-08-19T00:26:06;26.30;52.10
7970;DHT22;4030;52.362;9.206;2022-08-19T00:28:33;26.30;52.20
7970;DHT22;4030;52.362;9.206;2022-08-19T00:31:02;26.30;52.30
7970;DHT22;4030;52.362;9.206;2022-08-19T00:33:30;26.10;52.30
7970;DHT22;4030;52.362;9.206;2022-08-19T00:36:01;26.20;52.30
7970;DHT22;4030;52.362;9.206;2022-08-19T00:38:30;26.20;52.40
7970;DHT22;4030;52.362;9.206;2022-08-19T00:40:56;26.10;52.50
7970;DHT22;4030;52.362;9.206;2022-08-19T00:43:24;26.10;52.50
7970;DHT22;4030;52.362;9.206;2022-08-19T00:45:51;26.10;52.50
7970;DHT22;4030;52.362;9.206;2022-08-19T00:48:18;26.10;52.60
7970;DHT22;4030;52.362;9.206;2022-08-19T00:50:45;26.20;52.60
7970;DHT22;4030;52.362;9.206;2022-08-19T00:53:14;26.10;52.70
7970;DHT22;4030;52.362;9.206;2022-08-19T00:55:45;26.00;52.60
7970;DHT22;4030;52.362;9.206;2022-08-19T00:58:14;26.10;52.80
7970;DHT22;4030;52.362;9.206;2022-08-19T01:00:41;26.00;52.70
7970;DHT22;4030;52.362;9.206;2022-08-19T01:03:12;26.00;52.80
7970;DHT22;4030;52.362;9.206;2022-08-19T01:05:45;26.00;52.90
7970;DHT22;4030;52.362;9.206;2022-08-19T01:08:11;25.90;52.80
7970;DHT22;4030;52.362;9.206;2022-08-19T01:10:43;26.00;52.90
7970;DHT22;4030;52.362;9.206;2022-08-19T01:13:12;25.90;52.90
7970;DHT22;4030;52.362;9.206;2022-08-19T01:15:46;25.80;52.90
7970;DHT22;4030;52.362;9.206;2022-08-19T01:18:16;25.80;52.90
7970;DHT22;4030;52.362;9.206;2022-08-19T01:23:10;25.80;53.00
7970;DHT22;4030;52.362;9.206;2022-08-19T01:25:46;25.80;53.00
7970;DHT22;4030;52.362;9.206;2022-08-19T01:28:22;25.80;53.20
7970;DHT22;4030;52.362;9.206;2022-08-19T01:30:51;25.70;53.10
7970;DHT22;4030;52.362;9.206;2022-08-19T01:33:17;25.80;53.20
7970;DHT22;4030;52.362;9.206;2022-08-19T01:35:44;25.80;53.30
7970;DHT22;4030;52.362;9.206;2022-08-19T01:38:20;25.70;53.30
7970;DHT22;4030;52.362;9.206;2022-08-19T01:40:49;25.70;53.40
7970;DHT22;4030;52.362;9.206;2022-08-19T01:43:14;25.60;53.30
7970;DHT22;4030;52.362;9.206;2022-08-19T01:45:40;25.60;53.30
7970;DHT22;4030;52.362;9.206;2022-08-19T01:48:07;25.60;53.30
7970;DHT22;4030;52.362;9.206;2022-08-19T01:50:34;25.60;53.40
7970;DHT22;4030;52.362;9.206;2022-08-19T01:53:02;24.40;52.60
7970;DHT22;4030;52.362;9.206;2022-08-19T01:55:29;25.60;53.50
7970;DHT22;4030;52.362;9.206;2022-08-19T01:57:59;25.50;53.50
7970;DHT22;4030;52.362;9.206;2022-08-19T02:00:30;25.50;53.50
7970;DHT22;4030;52.362;9.206;2022-08-19T02:05:23;25.50;53.60
7970;DHT22;4030;52.362;9.206;2022-08-19T02:07:50;25.50;53.60
7970;DHT22;4030;52.362;9.206;2022-08-19T02:10:21;25.50;53.60
7970;DHT22;4030;52.362;9.206;2022-08-19T02:17:41;25.40;53.60
7970;DHT22;4030;52.362;9.206;2022-08-19T02:20:07;25.40;53.60
7970;DHT22;4030;52.362;9.206;2022-08-19T02:22:34;25.20;53.50
7970;DHT22;4030;52.362;9.206;2022-08-19T02:25:01;25.30;53.60
7970;DHT22;4030;52.362;9.206;2022-08-19T02:27:26;25.40;53.70
7970;DHT22;4030;52.362;9.206;2022-08-19T02:29:52;25.30;53.60
7970;DHT22;4030;52.362;9.206;2022-08-19T02:32:19;25.20;53.60
7970;DHT22;4030;52.362;9.206;2022-08-19T02:34:46;25.20;53.60
7970;DHT22;4030;52.362;9.206;2022-08-19T02:37:13;25.20;53.70
7970;DHT22;4030;52.362;9.206;2022-08-19T02:39:58;25.20;53.60
7970;DHT22;4030;52.362;9.206;2022-08-19T02:42:24;25.20;53.70
7970;DHT22;4030;52.362;9.206;2022-08-19T02:44:50;25.10;53.70
7970;DHT22;4030;52.362;9.206;2022-08-19T02:49:44;25.10;53.70
7970;DHT22;4030;52.362;9.206;2022-08-19T02:52:11;25.20;53.90
7970;DHT22;4030;52.362;9.206;2022-08-19T02:54:37;25.00;53.70
7970;DHT22;4030;52.362;9.206;2022-08-19T02:57:04;25.00;53.80
7970;DHT22;4030;52.362;9.206;2022-08-19T02:59:31;25.00;53.80
7970;DHT22;4030;52.362;9.206;2022-08-19T03:01:57;24.90;53.80
7970;DHT22;4030;52.362;9.206;2022-08-19T03:04:23;25.00;53.90
7970;DHT22;4030;52.362;9.206;2022-08-19T03:06:49;24.90;53.80
7970;DHT22;4030;52.362;9.206;2022-08-19T03:09:16;24.80;53.80
7970;DHT22;4030;52.362;9.206;2022-08-19T03:11:43;24.90;53.90
7970;DHT22;4030;52.362;9.206;2022-08-19T03:14:10;24.80;53.80
7970;DHT22;4030;52.362;9.206;2022-08-19T03:16:47;24.90;54.00
7970;DHT22;4030;52.362;9.206;2022-08-19T03:19:17;24.80;53.90
7970;DHT22;4030;52.362;9.206;2022-08-19T03:21:44;24.90;54.00
7970;DHT22;4030;52.362;9.206;2022-08-19T03:24:11;24.70;53.90
7970;DHT22;4030;52.362;9.206;2022-08-19T03:26:42;24.70;53.90
7970;DHT22;4030;52.362;9.206;2022-08-19T03:29:09;24.80;54.00
7970;DHT22;4030;52.362;9.206;2022-08-19T03:31:37;24.70;54.00
7970;DHT22;4030;52.362;9.206;2022-08-19T03:34:04;24.70;54.00
7970;DHT22;4030;52.362;9.206;2022-08-19T03:36:30;24.60;54.00
7970;DHT22;4030;52.362;9.206;2022-08-19T03:38:58;24.60;54.00
7970;DHT22;4030;52.362;9.206;2022-08-19T03:41:31;24.60;54.00
7970;DHT22;4030;52.362;9.206;2022-08-19T03:43:59;24.60;54.10
7970;DHT22;4030;52.362;9.206;2022-08-19T03:46:27;24.60;54.10
7970;DHT22;4030;52.362;9.206;2022-08-19T03:48:57;24.60;54.10
7970;DHT22;4030;52.362;9.206;2022-08-19T03:51:26;24.50;54.10
7970;DHT22;4030;52.362;9.206;2022-08-19T03:53:55;24.50;54.10
7970;DHT22;4030;52.362;9.206;2022-08-19T03:56:21;24.40;54.10
7970;DHT22;4030;52.362;9.206;2022-08-19T03:58:48;24.40;54.10
7970;DHT22;4030;52.362;9.206;2022-08-19T04:01:17;24.40;54.10
7970;DHT22;4030;52.362;9.206;2022-08-19T04:03:45;24.40;54.20
7970;DHT22;4030;52.362;9.206;2022-08-19T04:06:20;24.40;54.20
7970;DHT22;4030;52.362;9.206;2022-08-19T04:08:49;24.30;54.20
7970;DHT22;4030;52.362;9.206;2022-08-19T04:11:18;24.30;54.20
7970;DHT22;4030;52.362;9.206;2022-08-19T04:13:47;24.20;54.20
7970;DHT22;4030;52.362;9.206;2022-08-19T04:16:13;24.30;54.30
7970;DHT22;4030;52.362;9.206;2022-08-19T04:18:40;24.30;54.30
7970;DHT22;4030;52.362;9.206;2022-08-19T04:21:07;24.30;54.40
7970;DHT22;4030;52.362;9.206;2022-08-19T04:23:34;24.20;54.30
7970;DHT22;4030;52.362;9.206;2022-08-19T04:26:01;24.20;54.40
7970;DHT22;4030;52.362;9.206;2022-08-19T04:28:28;24.20;54.40
7970;DHT22;4030;52.362;9.206;2022-08-19T04:30:55;24.20;54.50
7970;DHT22;4030;52.362;9.206;2022-08-19T04:33:25;24.20;54.40
7970;DHT22;4030;52.362;9.206;2022-08-19T04:35:52;24.10;54.40
7970;DHT22;4030;52.362;9.206;2022-08-19T04:38:20;24.00;54.40
7970;DHT22;4030;52.362;9.206;2022-08-19T04:40:51;24.10;54.50
7970;DHT22;4030;52.362;9.206;2022-08-19T04:43:37;23.90;54.40
7970;DHT22;4030;52.362;9.206;2022-08-19T04:46:09;24.00;54.50
7970;DHT22;4030;52.362;9.206;2022-08-19T04:48:37;24.00;54.50
7970;DHT22;4030;52.362;9.206;2022-08-19T04:51:07;23.80;54.40
7970;DHT22;4030;52.362;9.206;2022-08-19T04:53:36;23.90;54.50
7970;DHT22;4030;52.362;9.206;2022-08-19T04:56:08;23.90;54.50
7970;DHT22;4030;52.362;9.206;2022-08-19T04:58:37;23.90;54.60
7970;DHT22;4030;52.362;9.206;2022-08-19T05:01:04;24.00;54.70
7970;DHT22;4030;52.362;9.206;2022-08-19T05:03:30;23.90;54.70
7970;DHT22;4030;52.362;9.206;2022-08-19T05:05:58;23.90;54.70
7970;DHT22;4030;52.362;9.206;2022-08-19T05:13:22;23.70;54.70
7970;DHT22;4030;52.362;9.206;2022-08-19T05:15:57;23.70;54.70
7970;DHT22;4030;52.362;9.206;2022-08-19T05:18:24;23.80;54.90
7970;DHT22;4030;52.362;9.206;2022-08-19T05:21:11;23.80;55.00
7970;DHT22;4030;52.362;9.206;2022-08-19T05:23:56;23.70;55.00
7970;DHT22;4030;52.362;9.206;2022-08-19T05:26:23;23.70;55.00
7970;DHT22;4030;52.362;9.206;2022-08-19T05:31:17;23.80;55.20
7970;DHT22;4030;52.362;9.206;2022-08-19T05:33:43;23.70;55.10
7970;DHT22;4030;52.362;9.206;2022-08-19T05:36:09;23.70;55.20
7970;DHT22;4030;52.362;9.206;2022-08-19T05:38:35;23.70;55.30
7970;DHT22;4030;52.362;9.206;2022-08-19T05:41:09;23.50;55.10
7970;DHT22;4030;52.362;9.206;2022-08-19T05:43:35;23.60;55.30
7970;DHT22;4030;52.362;9.206;2022-08-19T05:46:03;23.70;55.50
7970;DHT22;4030;52.362;9.206;2022-08-19T05:50:57;23.70;55.50
7970;DHT22;4030;52.362;9.206;2022-08-19T05:53:24;23.70;55.60
7970;DHT22;4030;52.362;9.206;2022-08-19T05:55:50;23.70;55.60
7970;DHT22;4030;52.362;9.206;2022-08-19T05:58:16;23.70;55.70
7970;DHT22;4030;52.362;9.206;2022-08-19T06:00:43;23.60;55.70
7970;DHT22;4030;52.362;9.206;2022-08-19T06:05:36;23.70;56.00
7970;DHT22;4030;52.362;9.206;2022-08-19T06:08:02;23.60;55.90
7970;DHT22;4030;52.362;9.206;2022-08-19T06:10:27;23.70;56.00
7970;DHT22;4030;52.362;9.206;2022-08-19T06:12:54;23.70;56.10
7970;DHT22;4030;52.362;9.206;2022-08-19T06:15:21;23.80;56.30
7970;DHT22;4030;52.362;9.206;2022-08-19T06:17:50;23.70;56.40
7970;DHT22;4030;52.362;9.206;2022-08-19T06:20:16;23.70;56.40
7970;DHT22;4030;52.362;9.206;2022-08-19T06:22:45;23.70;56.30
7970;DHT22;4030;52.362;9.206;2022-08-19T06:25:13;23.80;56.50
7970;DHT22;4030;52.362;9.206;2022-08-19T06:27:40;23.70;56.40
7970;DHT22;4030;52.362;9.206;2022-08-19T06:30:06;24.00;56.70
7970;DHT22;4030;52.362;9.206;2022-08-19T06:32:33;23.80;56.70
7970;DHT22;4030;52.362;9.206;2022-08-19T06:34:59;23.90;56.80
7970;DHT22;4030;52.362;9.206;2022-08-19T06:37:25;23.80;56.70
7970;DHT22;4030;52.362;9.206;2022-08-19T06:39:50;23.70;56.70
7970;DHT22;4030;52.362;9.206;2022-08-19T06:44:45;23.90;56.80
7970;DHT22;4030;52.362;9.206;2022-08-19T06:47:16;23.90;56.80
7970;DHT22;4030;52.362;9.206;2022-08-19T06:49:43;23.90;56.90
7970;DHT22;4030;52.362;9.206;2022-08-19T06:52:09;24.00;56.90
7970;DHT22;4030;52.362;9.206;2022-08-19T06:54:39;23.90;56.90
7970;DHT22;4030;52.362;9.206;2022-08-19T06:57:06;23.80;56.70
7970;DHT22;4030;52.362;9.206;2022-08-19T06:59:32;24.00;56.90
7970;DHT22;4030;52.362;9.206;2022-08-19T07:02:02;24.00;56.90
7970;DHT22;4030;52.362;9.206;2022-08-19T07:04:31;24.00;57.00
7970;DHT22;4030;52.362;9.206;2022-08-19T07:07:05;24.00;57.00
7970;DHT22;4030;52.362;9.206;2022-08-19T07:09:41;24.00;57.00
7970;DHT22;4030;52.362;9.206;2022-08-19T07:12:10;24.00;56.90
7970;DHT22;4030;52.362;9.206;2022-08-19T07:14:39;23.90;56.70
7970;DHT22;4030;52.362;9.206;2022-08-19T07:17:08;24.10;56.80
7970;DHT22;4030;52.362;9.206;2022-08-19T07:22:04;24.20;56.90
7970;DHT22;4030;52.362;9.206;2022-08-19T07:24:31;24.20;56.80
7970;DHT22;4030;52.362;9.206;2022-08-19T07:26:59;24.20;56.70
7970;DHT22;4030;52.362;9.206;2022-08-19T07:29:30;24.20;56.70
7970;DHT22;4030;52.362;9.206;2022-08-19T07:34:25;24.10;56.60
7970;DHT22;4030;52.362;9.206;2022-08-19T07:36:53;24.20;56.70
7970;DHT22;4030;52.362;9.206;2022-08-19T07:39:27;24.20;56.60
7970;DHT22;4030;52.362;9.206;2022-08-19T07:41:55;24.30;56.60
7970;DHT22;4030;52.362;9.206;2022-08-19T07:44:23;24.30;56.60
7970;DHT22;4030;52.362;9.206;2022-08-19T07:46:52;24.40;56.40
7970;DHT22;4030;52.362;9.206;2022-08-19T07:49:20;24.20;56.10
7970;DHT22;4030;52.362;9.206;2022-08-19T07:51:57;24.30;56.10
7970;DHT22;4030;52.362;9.206;2022-08-19T07:54:29;24.40;56.30
7970;DHT22;4030;52.362;9.206;2022-08-19T07:56:56;24.40;56.60
7970;DHT22;4030;52.362;9.206;2022-08-19T07:59:23;24.30;56.70
7970;DHT22;4030;52.362;9.206;2022-08-19T08:01:50;24.50;57.10
7970;DHT22;4030;52.362;9.206;2022-08-19T08:04:17;24.40;57.20
7970;DHT22;4030;52.362;9.206;2022-08-19T08:07:03;24.60;57.40
7970;DHT22;4030;52.362;9.206;2022-08-19T08:09:47;24.60;57.40
7970;DHT22;4030;52.362;9.206;2022-08-19T08:12:17;24.60;57.40
7970;DHT22;4030;52.362;9.206;2022-08-19T08:14:48;24.70;57.50
7970;DHT22;4030;52.362;9.206;2022-08-19T08:17:17;24.60;57.30
7970;DHT22;4030;52.362;9.206;2022-08-19T08:19:45;24.70;57.40
7970;DHT22;4030;52.362;9.206;2022-08-19T08:22:14;24.70;57.30
7970;DHT22;4030;52.362;9.206;2022-08-19T08:25:05;24.80;57.30
7970;DHT22;4030;52.362;9.206;2022-08-19T08:27:37;24.80;57.40
7970;DHT22;4030;52.362;9.206;2022-08-19T08:30:06;24.80;57.30
7970;DHT22;4030;52.362;9.206;2022-08-19T08:32:37;24.90;57.40
7970;DHT22;4030;52.362;9.206;2022-08-19T08:35:09;24.90;57.40
7970;DHT22;4030;52.362;9.206;2022-08-19T08:37:37;25.00;57.40
7970;DHT22;4030;52.362;9.206;2022-08-19T08:40:10;25.00;57.30
7970;DHT22;4030;52.362;9.206;2022-08-19T08:45:36;25.20;57.40
7970;DHT22;4030;52.362;9.206;2022-08-19T08:48:18;25.30;57.40
7970;DHT22;4030;52.362;9.206;2022-08-19T08:51:57;25.20;57.30
7970;DHT22;4030;52.362;9.206;2022-08-19T08:54:15;25.20;57.30
7970;DHT22;4030;52.362;9.206;2022-08-19T08:56:44;25.50;57.50
7970;DHT22;4030;52.362;9.206;2022-08-19T08:59:30;25.50;57.40
7970;DHT22;4030;52.362;9.206;2022-08-19T09:01:59;25.00;56.90
7970;DHT22;4030;52.362;9.206;2022-08-19T09:04:25;25.70;57.10
7970;DHT22;4030;52.362;9.206;2022-08-19T09:10:05;25.80;56.80
7970;DHT22;4030;52.362;9.206;2022-08-19T09:13:00;25.80;56.50
7970;DHT22;4030;52.362;9.206;2022-08-19T09:15:33;25.90;56.40
7970;DHT22;4030;52.362;9.206;2022-08-19T09:18:03;25.90;56.10
7970;DHT22;4030;52.362;9.206;2022-08-19T09:20:30;25.90;56.00
7970;DHT22;4030;52.362;9.206;2022-08-19T09:22:57;26.00;56.00
7970;DHT22;4030;52.362;9.206;2022-08-19T09:25:24;26.20;56.10
7970;DHT22;4030;52.362;9.206;2022-08-19T09:27:51;26.20;56.00
7970;DHT22;4030;52.362;9.206;2022-08-19T09:30:24;26.20;55.80
7970;DHT22;4030;52.362;9.206;2022-08-19T09:32:52;26.30;55.70
7970;DHT22;4030;52.362;9.206;2022-08-19T09:35:21;26.50;55.60
7970;DHT22;4030;52.362;9.206;2022-08-19T09:37:48;26.50;55.40
7970;DHT22;4030;52.362;9.206;2022-08-19T09:40:15;26.60;55.30
7970;DHT22;4030;52.362;9.206;2022-08-19T09:42:43;26.60;55.00
7970;DHT22;4030;52.362;9.206;2022-08-19T09:45:10;26.70;54.80
7970;DHT22;4030;52.362;9.206;2022-08-19T09:47:36;26.70;54.70
7970;DHT22;4030;52.362;9.206;2022-08-19T09:50:05;26.80;54.50
7970;DHT22;4030;52.362;9.206;2022-08-19T09:52:33;26.90;54.40
7970;DHT22;4030;52.362;9.206;2022-08-19T09:55:00;27.00;54.20
7970;DHT22;4030;52.362;9.206;2022-08-19T10:02:18;27.20;54.00
7970;DHT22;4030;52.362;9.206;2022-08-19T10:07:29;27.40;53.40
7970;DHT22;4030;52.362;9.206;2022-08-19T10:09:56;27.40;53.00
7970;DHT22;4030;52.362;9.206;2022-08-19T10:19:43;27.70;52.30
7970;DHT22;4030;52.362;9.206;2022-08-19T10:22:08;27.80;52.20
7970;DHT22;4030;52.362;9.206;2022-08-19T10:29:32;28.10;51.90
7970;DHT22;4030;52.362;9.206;2022-08-19T10:32:01;28.20;51.80
7970;DHT22;4030;52.362;9.206;2022-08-19T10:34:28;28.40;51.70
7970;DHT22;4030;52.362;9.206;2022-08-19T10:36:55;28.50;51.60
7970;DHT22;4030;52.362;9.206;2022-08-19T10:39:21;28.60;51.50
7970;DHT22;4030;52.362;9.206;2022-08-19T10:41:47;28.80;51.40
7970;DHT22;4030;52.362;9.206;2022-08-19T10:44:14;28.90;51.20
7970;DHT22;4030;52.362;9.206;2022-08-19T10:46:43;29.10;51.10
7970;DHT22;4030;52.362;9.206;2022-08-19T10:49:12;29.20;50.90
7970;DHT22;4030;52.362;9.206;2022-08-19T10:51:39;29.40;50.80
7970;DHT22;4030;52.362;9.206;2022-08-19T10:54:24;29.60;50.70
7970;DHT22;4030;52.362;9.206;2022-08-19T10:57:10;29.60;50.40
7970;DHT22;4030;52.362;9.206;2022-08-19T10:59:36;29.80;50.10
7970;DHT22;4030;52.362;9.206;2022-08-19T11:02:04;30.10;49.90
7970;DHT22;4030;52.362;9.206;2022-08-19T11:09:26;30.30;49.00
7970;DHT22;4030;52.362;9.206;2022-08-19T11:11:55;30.40;48.70
7970;DHT22;4030;52.362;9.206;2022-08-19T11:14:22;30.60;48.60
7970;DHT22;4030;52.362;9.206;2022-08-19T11:16:51;30.70;48.40
7970;DHT22;4030;52.362;9.206;2022-08-19T11:19:21;30.80;48.20
7970;DHT22;4030;52.362;9.206;2022-08-19T11:24:18;31.10;47.90
7970;DHT22;4030;52.362;9.206;2022-08-19T11:26:47;31.20;47.60
7970;DHT22;4030;52.362;9.206;2022-08-19T11:29:15;31.40;47.50
7970;DHT22;4030;52.362;9.206;2022-08-19T11:31:44;31.50;47.20
7970;DHT22;4030;52.362;9.206;2022-08-19T11:34:14;31.60;47.00
7970;DHT22;4030;52.362;9.206;2022-08-19T11:36:43;31.80;46.80
7970;DHT22;4030;52.362;9.206;2022-08-19T11:39:12;31.90;46.60
7970;DHT22;4030;52.362;9.206;2022-08-19T11:41:40;32.00;46.40
7970;DHT22;4030;52.362;9.206;2022-08-19T11:44:06;32.20;46.20
7970;DHT22;4030;52.362;9.206;2022-08-19T11:46:36;32.30;45.90
7970;DHT22;4030;52.362;9.206;2022-08-19T11:49:03;32.40;45.70
7970;DHT22;4030;52.362;9.206;2022-08-19T11:51:31;32.50;45.40
7970;DHT22;4030;52.362;9.206;2022-08-19T11:53:58;32.60;45.20
7970;DHT22;4030;52.362;9.206;2022-08-19T11:56:26;32.80;45.10
7970;DHT22;4030;52.362;9.206;2022-08-19T11:58:53;32.90;44.80
7970;DHT22;4030;52.362;9.206;2022-08-19T12:01:21;33.00;44.60
7970;DHT22;4030;52.362;9.206;2022-08-19T12:03:49;33.10;44.30
7970;DHT22;4030;52.362;9.206;2022-08-19T12:06:19;33.20;44.00
7970;DHT22;4030;52.362;9.206;2022-08-19T12:09:04;33.40;43.90
7970;DHT22;4030;52.362;9.206;2022-08-19T12:11:32;33.50;43.60
7970;DHT22;4030;52.362;9.206;2022-08-19T12:13:57;33.60;43.40
7970;DHT22;4030;52.362;9.206;2022-08-19T12:16:27;33.70;43.20
7970;DHT22;4030;52.362;9.206;2022-08-19T12:18:54;33.80;42.90
7970;DHT22;4030;52.362;9.206;2022-08-19T12:21:26;33.90;42.80
7970;DHT22;4030;52.362;9.206;2022-08-19T12:23:55;34.10;42.50
7970;DHT22;4030;52.362;9.206;2022-08-19T12:26:22;34.20;42.30
7970;DHT22;4030;52.362;9.206;2022-08-19T12:28:49;34.30;42.00
7970;DHT22;4030;52.362;9.206;2022-08-19T12:31:15;34.40;41.70
7970;DHT22;4030;52.362;9.206;2022-08-19T12:33:42;34.50;41.40
7970;DHT22;4030;52.362;9.206;2022-08-19T12:36:10;34.60;41.00
7970;DHT22;4030;52.362;9.206;2022-08-19T12:38:37;34.70;40.80
7970;DHT22;4030;52.362;9.206;2022-08-19T12:41:05;34.80;40.60
7970;DHT22;4030;52.362;9.206;2022-08-19T12:45:58;35.00;40.20
7970;DHT22;4030;52.362;9.206;2022-08-19T12:48:24;35.10;40.10
7970;DHT22;4030;52.362;9.206;2022-08-19T12:50:49;35.20;40.00
7970;DHT22;4030;52.362;9.206;2022-08-19T12:53:15;35.30;39.70
7970;DHT22;4030;52.362;9.206;2022-08-19T12:55:41;35.30;39.50
7970;DHT22;4030;52.362;9.206;2022-08-19T12:58:08;35.50;39.30
7970;DHT22;4030;52.362;9.206;2022-08-19T13:00:34;35.50;39.00
7970;DHT22;4030;52.362;9.206;2022-08-19T13:03:00;35.60;38.90
7970;DHT22;4030;52.362;9.206;2022-08-19T13:05:28;35.70;38.70
7970;DHT22;4030;52.362;9.206;2022-08-19T13:07:57;35.90;38.70
7970;DHT22;4030;52.362;9.206;2022-08-19T13:10:29;35.90;38.40
7970;DHT22;4030;52.362;9.206;2022-08-19T13:13:01;36.00;38.30
7970;DHT22;4030;52.362;9.206;2022-08-19T13:15:28;36.10;38.10
7970;DHT22;4030;52.362;9.206;2022-08-19T13:17:57;36.20;38.00
7970;DHT22;4030;52.362;9.206;2022-08-19T13:20:23;36.30;37.90
7970;DHT22;4030;52.362;9.206;2022-08-19T13:22:49;36.30;38.50
7970;DHT22;4030;52.362;9.206;2022-08-19T13:25:16;36.40;37.50
7970;DHT22;4030;52.362;9.206;2022-08-19T13:27:44;36.50;37.30
7970;DHT22;4030;52.362;9.206;2022-08-19T13:30:11;36.60;37.10
7970;DHT22;4030;52.362;9.206;2022-08-19T13:32:57;36.70;37.00
7970;DHT22;4030;52.362;9.206;2022-08-19T13:38:13;36.80;36.60
7970;DHT22;4030;52.362;9.206;2022-08-19T13:40:42;36.80;37.10
7970;DHT22;4030;52.362;9.206;2022-08-19T13:43:08;37.00;36.30
7970;DHT22;4030;52.362;9.206;2022-08-19T13:45:35;37.10;36.20
7970;DHT22;4030;52.362;9.206;2022-08-19T13:48:03;37.10;36.00
7970;DHT22;4030;52.362;9.206;2022-08-19T13:50:41;37.20;36.70
7970;DHT22;4030;52.362;9.206;2022-08-19T13:53:10;37.30;35.70
7970;DHT22;4030;52.362;9.206;2022-08-19T13:55:38;37.30;35.50
7970;DHT22;4030;52.362;9.206;2022-08-19T13:58:04;37.40;35.40
7970;DHT22;4030;52.362;9.206;2022-08-19T14:00:34;37.50;35.40
7970;DHT22;4030;52.362;9.206;2022-08-19T14:03:02;37.50;35.20
7970;DHT22;4030;52.362;9.206;2022-08-19T14:05:31;37.60;35.90
7970;DHT22;4030;52.362;9.206;2022-08-19T14:07:57;37.70;35.00
7970;DHT22;4030;52.362;9.206;2022-08-19T14:10:24;37.70;34.80
7970;DHT22;4030;52.362;9.206;2022-08-19T14:12:53;37.70;34.50
7970;DHT22;4030;52.362;9.206;2022-08-19T14:17:48;37.90;34.20
7970;DHT22;4030;52.362;9.206;2022-08-19T14:20:15;37.90;34.00
7970;DHT22;4030;52.362;9.206;2022-08-19T14:22:41;38.00;33.90
7970;DHT22;4030;52.362;9.206;2022-08-19T14:25:09;38.10;33.80
7970;DHT22;4030;52.362;9.206;2022-08-19T14:27:38;38.00;33.60
7970;DHT22;4030;52.362;9.206;2022-08-19T14:30:05;38.00;34.10
7970;DHT22;4030;52.362;9.206;2022-08-19T14:32:33;38.00;32.80
7970;DHT22;4030;52.362;9.206;2022-08-19T14:35:00;37.90;32.60
7970;DHT22;4030;52.362;9.206;2022-08-19T14:37:26;38.00;32.80
7970;DHT22;4030;52.362;9.206;2022-08-19T14:39:52;38.00;32.80
7970;DHT22;4030;52.362;9.206;2022-08-19T14:42:18;38.00;32.60
7970;DHT22;4030;52.362;9.206;2022-08-19T14:44:44;38.00;33.20
7970;DHT22;4030;52.362;9.206;2022-08-19T14:47:10;38.00;32.80
7970;DHT22;4030;52.362;9.206;2022-08-19T14:49:35;37.90;31.80
7970;DHT22;4030;52.362;9.206;2022-08-19T14:52:02;37.90;32.40
7970;DHT22;4030;52.362;9.206;2022-08-19T14:54:28;37.80;31.60
7970;DHT22;4030;52.362;9.206;2022-08-19T14:56:55;37.80;32.20
7970;DHT22;4030;52.362;9.206;2022-08-19T14:59:21;37.70;32.10
7970;DHT22;4030;52.362;9.206;2022-08-19T15:01:46;37.60;32.10
7970;DHT22;4030;52.362;9.206;2022-08-19T15:04:12;37.50;31.50
7970;DHT22;4030;52.362;9.206;2022-08-19T15:06:39;37.50;31.50
7970;DHT22;4030;52.362;9.206;2022-08-19T15:09:05;37.40;31.40
7970;DHT22;4030;52.362;9.206;2022-08-19T15:11:31;37.40;31.90
7970;DHT22;4030;52.362;9.206;2022-08-19T15:13:58;37.30;32.00
7970;DHT22;4030;52.362;9.206;2022-08-19T15:16:25;37.20;31.80
7970;DHT22;4030;52.362;9.206;2022-08-19T15:18:54;37.10;31.20
7970;DHT22;4030;52.362;9.206;2022-08-19T15:21:22;37.00;31.20
7970;DHT22;4030;52.362;9.206;2022-08-19T15:23:50;37.00;31.30
7970;DHT22;4030;52.362;9.206;2022-08-19T15:26:17;36.90;31.40
7970;DHT22;4030;52.362;9.206;2022-08-19T15:28:44;36.80;31.30
7970;DHT22;4030;52.362;9.206;2022-08-19T15:31:12;36.80;31.40
7970;DHT22;4030;52.362;9.206;2022-08-19T15:33:39;36.80;31.50
7970;DHT22;4030;52.362;9.206;2022-08-19T15:36:10;36.60;31.50
7970;DHT22;4030;52.362;9.206;2022-08-19T15:38:39;36.70;32.20
7970;DHT22;4030;52.362;9.206;2022-08-19T15:41:20;36.60;31.70
7970;DHT22;4030;52.362;9.206;2022-08-19T15:43:55;36.50;31.80
7970;DHT22;4030;52.362;9.206;2022-08-19T15:46:28;36.50;31.90
7970;DHT22;4030;52.362;9.206;2022-08-19T15:48:56;36.50;32.00
7970;DHT22;4030;52.362;9.206;2022-08-19T15:51:23;36.40;32.10
7970;DHT22;4030;52.362;9.206;2022-08-19T15:53:50;36.40;32.20
7970;DHT22;4030;52.362;9.206;2022-08-19T15:56:16;36.20;32.20
7970;DHT22;4030;52.362;9.206;2022-08-19T15:58:42;36.30;32.20
7970;DHT22;4030;52.362;9.206;2022-08-19T16:01:26;36.30;32.20
7970;DHT22;4030;52.362;9.206;2022-08-19T16:04:10;36.20;32.20
7970;DHT22;4030;52.362;9.206;2022-08-19T16:06:56;36.10;32.20
7970;DHT22;4030;52.362;9.206;2022-08-19T16:09:26;36.20;32.30
7970;DHT22;4030;52.362;9.206;2022-08-19T16:12:01;36.00;32.10
7970;DHT22;4030;52.362;9.206;2022-08-19T16:14:31;36.00;32.10
7970;DHT22;4030;52.362;9.206;2022-08-19T16:16:58;35.90;32.20
7970;DHT22;4030;52.362;9.206;2022-08-19T16:19:24;35.90;32.20
7970;DHT22;4030;52.362;9.206;2022-08-19T16:21:51;35.90;32.30
7970;DHT22;4030;52.362;9.206;2022-08-19T16:24:20;35.80;32.30
7970;DHT22;4030;52.362;9.206;2022-08-19T16:26:47;35.80;32.40
7970;DHT22;4030;52.362;9.206;2022-08-19T16:29:15;35.80;32.40
7970;DHT22;4030;52.362;9.206;2022-08-19T16:31:42;35.60;32.40
7970;DHT22;4030;52.362;9.206;2022-08-19T16:34:10;35.60;32.50
7970;DHT22;4030;52.362;9.206;2022-08-19T16:36:36;35.60;32.50
7970;DHT22;4030;52.362;9.206;2022-08-19T16:39:06;35.60;32.60
7970;DHT22;4030;52.362;9.206;2022-08-19T16:41:33;35.50;32.50
7970;DHT22;4030;52.362;9.206;2022-08-19T16:43:59;35.50;32.50
7970;DHT22;4030;52.362;9.206;2022-08-19T16:46:25;35.40;32.50
7970;DHT22;4030;52.362;9.206;2022-08-19T16:48:51;35.30;32.50
7970;DHT22;4030;52.362;9.206;2022-08-19T16:51:17;35.30;32.50
7970;DHT22;4030;52.362;9.206;2022-08-19T16:53:43;35.20;32.50
7970;DHT22;4030;52.362;9.206;2022-08-19T16:56:10;35.20;32.60
7970;DHT22;4030;52.362;9.206;2022-08-19T16:58:36;35.10;32.50
7970;DHT22;4030;52.362;9.206;2022-08-19T17:01:04;35.00;32.50
7970;DHT22;4030;52.362;9.206;2022-08-19T17:03:32;35.00;32.60
7970;DHT22;4030;52.362;9.206;2022-08-19T17:05:59;35.00;32.60
7970;DHT22;4030;52.362;9.206;2022-08-19T17:08:29;34.90;32.60
7970;DHT22;4030;52.362;9.206;2022-08-19T17:10:56;34.80;32.60
7970;DHT22;4030;52.362;9.206;2022-08-19T17:13:25;34.70;32.60
7970;DHT22;4030;52.362;9.206;2022-08-19T17:15:51;34.70;32.60
7970;DHT22;4030;52.362;9.206;2022-08-19T17:18:19;34.60;32.60
7970;DHT22;4030;52.362;9.206;2022-08-19T17:20:47;34.60;32.70
7970;DHT22;4030;52.362;9.206;2022-08-19T17:23:14;34.40;32.60
7970;DHT22;4030;52.362;9.206;2022-08-19T17:25:40;34.50;32.80
7970;DHT22;4030;52.362;9.206;2022-08-19T17:28:13;34.40;32.80